createdAt,value
2018-09-15T00:01:25.937Z,73.60
2018-09-15T00:03:52.290Z,73.44
2018-09-15T00:06:18.654Z,73.58
2018-09-15T00:08:44.960Z,73.50
2018-09-15T00:11:11.282Z,73.85
2018-09-15T00:13:37.600Z,73.53
2018-09-15T00:16:03.973Z,73.74
2018-09-15T00:18:30.305Z,74.46
2018-09-15T00:20:56.621Z,75.68
2018-09-15T00:23:22.996Z,74.75
2018-09-15T00:25:49.314Z,75.04
2018-09-15T00:28:15.643Z,74.58
2018-09-15T00:30:41.981Z,75.06
2018-09-15T00:33:08.304Z,76.05
2018-09-15T00:35:34.622Z,75.82
2018-09-15T00:38:00.938Z,76.10
2018-09-15T00:40:27.256Z,76.06
2018-09-15T00:42:53.568Z,74.09
2018-09-15T00:45:19.902Z,75.26
2018-09-15T00:47:46.260Z,74.76
2018-09-15T00:50:12.596Z,74.30
2018-09-15T00:52:38.955Z,74.52
2018-09-15T00:57:31.411Z,75.97
2018-09-15T00:59:57.761Z,75.30
2018-09-15T01:02:24.072Z,75.82
2018-09-15T01:04:50.425Z,75.94
2018-09-15T01:07:16.745Z,76.71
2018-09-15T01:09:43.061Z,76.09
2018-09-15T01:12:09.433Z,75.99
2018-09-15T01:14:35.684Z,76.15
2018-09-15T01:17:01.998Z,75.93
2018-09-15T01:19:28.310Z,76.41
2018-09-15T01:21:54.627Z,76.14
2018-09-15T01:24:20.950Z,75.93
2018-09-15T01:26:47.264Z,76.72
2018-09-15T01:29:13.575Z,76.78
2018-09-15T01:31:39.895Z,75.93
2018-09-15T01:34:06.256Z,76.50
2018-09-15T01:36:32.566Z,76.19
2018-09-15T01:38:58.883Z,75.89
2018-09-15T01:41:25.205Z,75.97
2018-09-15T01:43:51.515Z,75.37
2018-09-15T01:46:17.823Z,75.72
2018-09-15T01:48:44.134Z,75.96
2018-09-15T01:51:10.448Z,76.48
2018-09-15T01:53:36.806Z,75.35
2018-09-15T01:56:03.120Z,75.22
2018-09-15T01:58:29.423Z,75.34
2018-09-15T02:00:55.740Z,75.75
2018-09-15T02:03:22.147Z,76.62
2018-09-15T02:05:48.506Z,75.92
2018-09-15T02:08:14.818Z,75.58
2018-09-15T02:10:41.122Z,75.91
2018-09-15T02:13:07.446Z,76.13
2018-09-15T02:15:33.756Z,76.46
2018-09-15T02:18:00.073Z,75.92
2018-09-15T02:20:26.383Z,76.79
2018-09-15T02:22:52.709Z,77.81
2018-09-15T02:25:19.018Z,77.43
2018-09-15T02:27:45.333Z,77.75
2018-09-15T02:30:11.659Z,77.75
2018-09-15T02:32:37.977Z,77.67
2018-09-15T02:35:04.294Z,77.19
2018-09-15T02:37:30.662Z,77.00
2018-09-15T02:39:57.020Z,77.23
2018-09-15T02:42:23.331Z,76.87
2018-09-15T02:44:49.658Z,77.40
2018-09-15T02:47:15.970Z,78.54
2018-09-15T02:49:42.282Z,77.76
2018-09-15T02:52:08.625Z,77.70
2018-09-15T02:54:34.952Z,77.46
2018-09-15T02:57:01.330Z,76.84
2018-09-15T02:59:27.645Z,77.73
2018-09-15T03:01:53.950Z,77.83
2018-09-15T03:04:20.286Z,77.43
2018-09-15T03:06:46.635Z,76.66
2018-09-15T03:09:12.955Z,76.75
2018-09-15T03:11:39.270Z,76.54
2018-09-15T03:14:05.592Z,76.94
2018-09-15T03:16:31.913Z,77.99
2018-09-15T03:18:58.272Z,77.86
2018-09-15T03:21:24.582Z,78.52
2018-09-15T03:23:50.935Z,77.37
2018-09-15T03:26:17.289Z,77.91
2018-09-15T03:28:43.601Z,77.33
2018-09-15T03:31:09.908Z,78.72
2018-09-15T03:33:36.227Z,79.22
2018-09-15T03:36:02.535Z,79.45
2018-09-15T03:38:28.848Z,80.05
2018-09-15T03:40:55.160Z,79.66
2018-09-15T03:43:21.508Z,79.13
2018-09-15T03:45:47.818Z,77.89
2018-09-15T03:48:14.138Z,78.00
2018-09-15T03:50:40.466Z,78.23
2018-09-15T03:53:06.776Z,77.98
2018-09-15T03:55:33.095Z,77.64
2018-09-15T03:57:59.406Z,77.57
2018-09-15T04:00:25.726Z,77.89
2018-09-15T04:02:52.060Z,78.15
2018-09-15T04:05:18.378Z,77.61
2018-09-15T04:07:44.687Z,77.83
2018-09-15T04:10:11.007Z,77.08
2018-09-15T04:12:37.313Z,77.44
2018-09-15T04:15:03.629Z,78.01
2018-09-15T04:17:29.945Z,79.03
2018-09-15T04:19:56.258Z,79.64
2018-09-15T04:22:23.579Z,79.62
2018-09-15T04:24:49.893Z,78.74
2018-09-15T04:27:16.231Z,78.34
2018-09-15T04:29:42.549Z,78.27
2018-09-15T04:32:08.863Z,77.77
2018-09-15T04:34:35.279Z,78.03
2018-09-15T04:37:01.595Z,76.81
2018-09-15T04:39:27.960Z,76.54
2018-09-15T04:41:54.282Z,76.98
2018-09-15T04:44:20.587Z,76.22
2018-09-15T04:46:46.904Z,76.38
2018-09-15T04:49:13.272Z,76.28
2018-09-15T04:51:39.556Z,75.54
2018-09-15T04:54:05.875Z,74.69
2018-09-15T04:56:32.183Z,74.54
2018-09-15T04:58:58.505Z,74.34
2018-09-15T05:01:24.816Z,73.35
2018-09-15T05:03:51.129Z,72.88
2018-09-15T05:06:17.435Z,73.17
2018-09-15T05:08:43.750Z,72.31
2018-09-15T05:11:10.064Z,71.86
2018-09-15T05:13:36.684Z,71.07
2018-09-15T05:16:03.018Z,70.37
2018-09-15T05:18:29.327Z,70.17
2018-09-15T05:20:55.642Z,68.96
2018-09-15T05:23:21.957Z,67.56
2018-09-15T05:25:48.277Z,66.58
2018-09-15T05:28:14.593Z,65.41
2018-09-15T05:30:40.908Z,66.32
2018-09-15T05:33:07.223Z,66.81
2018-09-15T05:35:33.528Z,66.50
2018-09-15T05:37:59.838Z,66.10
2018-09-15T05:40:26.144Z,65.46
2018-09-15T05:42:52.456Z,65.19
2018-09-15T05:45:19.135Z,65.17
2018-09-15T05:47:45.457Z,64.72
2018-09-15T05:50:11.764Z,63.75
2018-09-15T05:52:38.078Z,63.52
2018-09-15T05:55:04.388Z,63.35
2018-09-15T05:57:30.711Z,61.24
2018-09-15T05:59:57.042Z,61.04
2018-09-15T06:02:23.353Z,60.72
2018-09-15T06:04:49.667Z,60.94
2018-09-15T06:07:15.987Z,60.37
2018-09-15T06:09:42.295Z,60.32
2018-09-15T06:12:08.615Z,59.56
2018-09-15T06:14:34.928Z,59.50
2018-09-15T06:17:01.272Z,58.76
2018-09-15T06:19:27.587Z,59.39
2018-09-15T06:21:53.899Z,58.96
2018-09-15T06:24:20.226Z,58.25
2018-09-15T06:26:46.596Z,57.32
2018-09-15T06:29:12.893Z,58.15
2018-09-15T06:31:39.213Z,56.96
2018-09-15T06:34:05.530Z,57.10
2018-09-15T06:36:31.852Z,56.37
2018-09-15T06:38:58.188Z,55.46
2018-09-15T06:41:24.511Z,55.87
2018-09-15T06:43:50.825Z,55.51
2018-09-15T06:46:17.141Z,54.58
2018-09-15T06:48:43.467Z,53.10
2018-09-15T06:51:09.781Z,54.67
2018-09-15T06:53:38.956Z,55.05
2018-09-15T06:56:05.266Z,54.35
2018-09-15T06:58:31.611Z,54.07
2018-09-15T07:00:57.957Z,54.05
2018-09-15T07:03:24.275Z,54.62
2018-09-15T07:05:50.593Z,52.94
2018-09-15T07:08:21.168Z,52.59
2018-09-15T07:10:46.234Z,52.54
2018-09-15T07:13:12.547Z,52.67
2018-09-15T07:15:38.901Z,52.08
2018-09-15T07:18:05.220Z,52.68
2018-09-15T07:20:31.528Z,53.42
2018-09-15T07:22:57.853Z,52.83
2018-09-15T07:25:24.182Z,52.55
2018-09-15T07:27:50.793Z,51.68
2018-09-15T07:30:17.119Z,50.67
2018-09-15T07:32:43.415Z,50.38
2018-09-15T07:35:09.739Z,50.63
2018-09-15T07:37:36.104Z,48.85
2018-09-15T07:40:02.381Z,50.32
2018-09-15T07:42:28.728Z,49.78
2018-09-15T07:44:55.045Z,50.14
2018-09-15T07:47:21.357Z,49.70
2018-09-15T07:49:47.674Z,50.15
2018-09-15T07:52:14.003Z,49.32
2018-09-15T07:54:40.317Z,48.79
2018-09-15T07:57:06.634Z,49.18
2018-09-15T07:59:32.952Z,48.77
2018-09-15T08:01:59.297Z,47.43
2018-09-15T08:04:25.643Z,46.99
2018-09-15T08:06:51.969Z,46.77
2018-09-15T08:09:18.275Z,46.26
2018-09-15T08:11:44.608Z,46.09
2018-09-15T08:14:10.956Z,46.31
2018-09-15T08:16:37.253Z,46.14
2018-09-15T08:19:03.621Z,44.83
2018-09-15T08:21:29.951Z,44.71
2018-09-15T08:23:56.260Z,45.65
2018-09-15T08:26:22.675Z,46.29
2018-09-15T08:28:48.927Z,47.25
2018-09-15T08:31:15.244Z,47.48
2018-09-15T08:33:41.561Z,46.82
2018-09-15T08:36:07.873Z,46.99
2018-09-15T08:38:34.247Z,46.87
2018-09-15T08:41:00.581Z,46.65
2018-09-15T08:43:26.946Z,45.62
2018-09-15T08:45:53.275Z,46.00
2018-09-15T08:48:19.674Z,46.23
2018-09-15T08:50:45.923Z,46.18
2018-09-15T08:53:12.236Z,45.97
2018-09-15T08:55:38.555Z,45.11
2018-09-15T08:58:04.889Z,45.08
2018-09-15T09:00:31.220Z,45.00
2018-09-15T09:02:57.551Z,45.16
2018-09-15T09:05:23.879Z,45.47
2018-09-15T09:07:50.217Z,45.20
2018-09-15T09:10:16.540Z,45.68
2018-09-15T09:12:42.867Z,44.32
2018-09-15T09:15:09.184Z,42.18
2018-09-15T09:17:36.014Z,43.27
2018-09-15T09:20:02.441Z,44.14
2018-09-15T09:22:28.666Z,44.24
2018-09-15T09:24:55.005Z,43.88
2018-09-15T09:27:21.322Z,43.84
2018-09-15T09:29:47.637Z,42.58
2018-09-15T09:32:14.031Z,40.76
2018-09-15T09:34:40.329Z,39.01
2018-09-15T09:37:06.704Z,38.67
2018-09-15T09:39:33.041Z,38.56
2018-09-15T09:41:59.373Z,37.63
2018-09-15T09:44:25.735Z,37.01
2018-09-15T09:46:52.072Z,36.75
2018-09-15T09:49:18.385Z,36.88
2018-09-15T09:51:44.848Z,36.53
2018-09-15T09:54:11.119Z,35.94
2018-09-15T09:56:37.581Z,36.72
2018-09-15T09:59:03.876Z,35.26
2018-09-15T10:01:30.293Z,34.99
2018-09-15T10:03:56.630Z,35.29
2018-09-15T10:06:22.936Z,35.31
2018-09-15T10:08:49.247Z,35.16
2018-09-15T10:11:15.616Z,34.52
2018-09-15T10:13:41.951Z,33.62
2018-09-15T10:16:08.311Z,33.84
2018-09-15T10:18:34.604Z,33.60
2018-09-15T10:21:00.917Z,32.96
2018-09-15T10:23:27.274Z,33.31
2018-09-15T10:25:53.649Z,33.70
2018-09-15T10:28:19.967Z,33.73
2018-09-15T10:30:46.334Z,32.61
2018-09-15T10:33:15.668Z,33.04
2018-09-15T10:35:41.997Z,32.38
2018-09-15T10:38:08.310Z,32.55
2018-09-15T10:40:34.618Z,33.69
2018-09-15T10:43:00.956Z,34.54
2018-09-15T10:45:27.259Z,34.52
2018-09-15T10:47:53.569Z,34.61
2018-09-15T10:50:19.913Z,33.25
2018-09-15T10:52:46.217Z,33.10
2018-09-15T10:55:12.530Z,31.96
2018-09-15T10:57:38.865Z,30.69
2018-09-15T11:00:05.175Z,30.99
2018-09-15T11:02:31.516Z,30.23
2018-09-15T11:04:57.895Z,30.08
2018-09-15T11:07:24.203Z,30.43
2018-09-15T11:09:50.535Z,30.87
2018-09-15T11:12:16.848Z,31.99
2018-09-15T11:14:43.164Z,32.94
2018-09-15T11:17:09.500Z,32.78
2018-09-15T11:19:35.841Z,31.49
2018-09-15T11:22:02.209Z,29.83
2018-09-15T11:24:28.540Z,29.06
2018-09-15T11:26:54.873Z,28.56
2018-09-15T11:29:21.253Z,28.60
2018-09-15T11:31:47.590Z,28.62
2018-09-15T11:34:13.982Z,29.26
2018-09-15T11:36:40.240Z,30.20
2018-09-15T11:39:06.553Z,29.81
2018-09-15T11:41:32.890Z,28.47
2018-09-15T11:43:59.223Z,29.77
2018-09-15T11:46:25.584Z,30.66
2018-09-15T11:48:51.914Z,30.91
2018-09-15T11:51:18.226Z,32.07
2018-09-15T11:53:44.614Z,32.26
2018-09-15T11:56:10.927Z,32.83
2018-09-15T11:58:37.250Z,32.94
2018-09-15T12:01:03.599Z,33.39
2018-09-15T12:03:29.915Z,33.34
2018-09-15T12:05:56.235Z,32.76
2018-09-15T12:08:22.587Z,31.39
2018-09-15T12:10:48.896Z,31.97
2018-09-15T12:13:15.228Z,31.78
2018-09-15T12:15:41.616Z,32.34
2018-09-15T12:18:07.942Z,32.31
2018-09-15T12:20:34.272Z,33.51
2018-09-15T12:23:01.931Z,33.79
2018-09-15T12:25:26.921Z,34.61
2018-09-15T12:27:53.295Z,33.97
2018-09-15T12:30:19.625Z,33.83
2018-09-15T12:32:45.937Z,34.42
2018-09-15T12:35:12.275Z,34.80
2018-09-15T12:37:38.594Z,34.27
2018-09-15T12:40:04.921Z,33.75
2018-09-15T12:42:31.252Z,34.32
2018-09-15T12:44:57.643Z,34.81
2018-09-15T12:47:23.922Z,35.10
2018-09-15T12:49:50.292Z,35.52
2018-09-15T12:52:16.733Z,36.01
2018-09-15T12:54:43.001Z,35.69
2018-09-15T12:57:09.324Z,35.40
2018-09-15T12:59:35.663Z,36.01
2018-09-15T13:02:02.018Z,35.62
2018-09-15T13:04:28.329Z,36.22
2018-09-15T13:06:54.662Z,36.63
2018-09-15T13:09:20.977Z,36.67
2018-09-15T13:11:47.687Z,37.18
2018-09-15T13:14:13.996Z,37.01
2018-09-15T13:16:40.328Z,37.25
2018-09-15T13:19:06.705Z,36.56
2018-09-15T13:21:33.019Z,36.00
2018-09-15T13:23:59.351Z,35.25
2018-09-15T13:26:25.667Z,35.36
2018-09-15T13:28:51.975Z,35.85
2018-09-15T13:31:18.374Z,35.93
2018-09-15T13:33:44.676Z,35.93
2018-09-15T13:36:10.995Z,36.34
2018-09-15T13:38:37.312Z,36.56
2018-09-15T13:41:03.641Z,36.18
2018-09-15T13:43:29.963Z,36.63
2018-09-15T13:45:56.300Z,37.90
2018-09-15T13:48:22.637Z,37.31
2018-09-15T13:50:48.947Z,37.47
2018-09-15T13:53:15.280Z,38.00
2018-09-15T13:55:41.579Z,38.16
2018-09-15T13:58:07.891Z,38.44
2018-09-15T14:00:34.224Z,38.88
2018-09-15T14:03:00.624Z,39.03
2018-09-15T14:05:26.936Z,39.14
2018-09-15T14:07:53.279Z,38.96
2018-09-15T14:10:19.612Z,39.13
2018-09-15T14:12:45.956Z,39.21
2018-09-15T14:15:12.289Z,39.39
2018-09-15T14:17:38.604Z,39.51
2018-09-15T14:20:04.981Z,39.45
2018-09-15T14:22:31.355Z,39.35
2018-09-15T14:24:57.660Z,39.51
2018-09-15T14:27:23.995Z,39.69
2018-09-15T14:29:50.309Z,40.00
2018-09-15T14:32:16.655Z,39.99
2018-09-15T14:34:43.003Z,40.15
2018-09-15T14:37:09.320Z,39.88
2018-09-15T14:39:35.634Z,39.96
2018-09-15T14:42:02.035Z,40.03
2018-09-15T14:44:28.341Z,40.07
2018-09-15T14:46:54.694Z,40.19
2018-09-15T14:49:21.028Z,40.34
2018-09-15T14:51:47.387Z,40.21
2018-09-15T14:54:13.700Z,40.18
2018-09-15T14:56:40.033Z,39.99
2018-09-15T14:59:06.344Z,39.75
2018-09-15T15:01:32.696Z,39.65
2018-09-15T15:04:16.215Z,39.65
2018-09-15T15:06:28.847Z,39.76
2018-09-15T15:08:55.181Z,39.84
2018-09-15T15:11:21.490Z,39.73
2018-09-15T15:13:48.014Z,39.84
2018-09-15T15:16:14.300Z,39.90
2018-09-15T15:18:40.634Z,40.01
2018-09-15T15:21:06.939Z,40.00
2018-09-15T15:23:33.350Z,39.86
2018-09-15T15:25:59.704Z,40.07
2018-09-15T15:28:26.014Z,39.71
2018-09-15T15:30:52.318Z,39.92
2018-09-15T15:33:18.669Z,40.09
2018-09-15T15:35:45.021Z,40.33
2018-09-15T15:38:11.359Z,40.83
2018-09-15T15:40:44.056Z,41.01
2018-09-15T15:43:10.352Z,41.20
2018-09-15T15:45:36.661Z,41.50
2018-09-15T15:48:03.033Z,41.82
2018-09-15T15:50:29.394Z,42.17
2018-09-15T15:52:55.699Z,42.48
2018-09-15T15:55:22.034Z,42.60
2018-09-15T15:57:48.380Z,42.60
2018-09-15T16:00:14.714Z,43.57
2018-09-15T16:02:41.093Z,42.95
2018-09-15T16:05:07.425Z,42.98
2018-09-15T16:07:33.804Z,43.28
2018-09-15T16:10:00.077Z,43.48
2018-09-15T16:12:26.392Z,43.57
2018-09-15T16:14:52.731Z,43.57
2018-09-15T16:17:19.072Z,43.30
2018-09-15T16:19:45.424Z,43.49
2018-09-15T16:22:11.735Z,43.35
2018-09-15T16:24:38.072Z,43.41
2018-09-15T16:27:04.394Z,43.46
2018-09-15T16:29:30.699Z,44.66
2018-09-15T16:31:57.014Z,45.82
2018-09-15T16:34:23.344Z,46.89
2018-09-15T16:36:49.650Z,47.95
2018-09-15T16:39:15.984Z,48.91
2018-09-15T16:41:42.315Z,49.17
2018-09-15T16:44:08.655Z,49.00
2018-09-15T16:46:34.972Z,49.04
2018-09-15T16:49:01.305Z,48.78
2018-09-15T16:51:27.619Z,47.96
2018-09-15T16:53:53.954Z,47.54
2018-09-15T16:56:20.265Z,47.27
2018-09-15T16:58:46.595Z,47.32
2018-09-15T17:01:12.903Z,47.40
2018-09-15T17:03:39.228Z,47.65
2018-09-15T17:06:05.538Z,47.83
2018-09-15T17:08:31.852Z,48.23
2018-09-15T17:10:58.170Z,48.29
2018-09-15T17:13:24.485Z,48.70
2018-09-15T17:15:50.851Z,48.87
2018-09-15T17:18:17.128Z,49.04
2018-09-15T17:20:43.486Z,50.26
2018-09-15T17:23:09.808Z,51.46
2018-09-15T17:25:36.120Z,51.88
2018-09-15T17:28:02.433Z,51.98
2018-09-15T17:30:28.754Z,52.24
2018-09-15T17:32:55.068Z,52.40
2018-09-15T17:35:21.385Z,52.67
2018-09-15T17:37:50.458Z,52.76
2018-09-15T17:40:16.840Z,52.78
2018-09-15T17:42:43.147Z,52.91
2018-09-15T17:45:09.462Z,53.11
2018-09-15T17:47:35.786Z,53.45
2018-09-15T17:50:02.102Z,53.77
2018-09-15T17:52:28.475Z,54.05
2018-09-15T17:54:54.816Z,54.49
2018-09-15T17:57:21.091Z,54.84
2018-09-15T17:59:47.418Z,55.28
2018-09-15T18:02:13.768Z,55.49
2018-09-15T18:04:40.081Z,56.14
2018-09-15T18:07:06.400Z,56.52
2018-09-15T18:09:32.838Z,56.54
2018-09-15T18:11:59.088Z,56.92
2018-09-15T18:14:25.412Z,57.04
2018-09-15T18:16:51.750Z,57.15
2018-09-15T18:19:18.083Z,57.30
2018-09-15T18:21:44.394Z,57.46
2018-09-15T18:24:10.714Z,57.43
2018-09-15T18:26:37.039Z,57.79
2018-09-15T18:29:04.004Z,58.04
2018-09-15T18:31:30.323Z,58.15
2018-09-15T18:33:56.741Z,57.95
2018-09-15T18:36:23.131Z,58.29
2018-09-15T18:38:49.339Z,58.18
2018-09-15T18:41:15.661Z,58.56
2018-09-15T18:43:41.971Z,58.69
2018-09-15T18:46:08.284Z,58.65
2018-09-15T18:48:34.598Z,58.95
2018-09-15T18:51:00.915Z,58.84
2018-09-15T18:53:27.231Z,58.92
2018-09-15T18:55:53.577Z,58.94
2018-09-15T18:58:19.909Z,59.11
2018-09-15T19:00:46.224Z,59.10
2018-09-15T19:03:12.528Z,59.37
2018-09-15T19:05:38.847Z,59.49
2018-09-15T19:08:05.166Z,59.75
2018-09-15T19:10:31.529Z,59.48
2018-09-15T19:12:57.840Z,59.54
2018-09-15T19:15:24.162Z,59.72
2018-09-15T19:17:50.534Z,59.38
2018-09-15T19:20:16.856Z,59.70
2018-09-15T19:22:43.187Z,59.74
2018-09-15T19:25:09.546Z,59.92
2018-09-15T19:27:35.868Z,60.13
2018-09-15T19:30:02.189Z,60.14
2018-09-15T19:32:28.504Z,60.55
2018-09-15T19:34:54.814Z,60.79
2018-09-15T19:37:21.149Z,60.83
2018-09-15T19:39:47.476Z,60.90
2018-09-15T19:42:13.801Z,60.92
2018-09-15T19:44:40.121Z,61.01
2018-09-15T19:47:06.439Z,61.28
2018-09-15T19:49:32.755Z,61.37
2018-09-15T19:51:59.096Z,61.54
2018-09-15T19:54:25.413Z,61.90
2018-09-15T19:56:51.754Z,61.95
2018-09-15T19:59:18.183Z,62.03
2018-09-15T20:01:44.388Z,62.49
2018-09-15T20:04:10.711Z,62.48
2018-09-15T20:06:37.027Z,62.92
2018-09-15T20:09:03.330Z,62.72
2018-09-15T20:11:29.658Z,63.14
2018-09-15T20:13:55.975Z,63.31
2018-09-15T20:16:22.292Z,63.16
2018-09-15T20:18:48.649Z,63.46
2018-09-15T20:21:14.990Z,63.56
2018-09-15T20:23:41.400Z,63.66
2018-09-15T20:26:07.702Z,63.66
2018-09-15T20:28:34.009Z,63.86
2018-09-15T20:31:00.329Z,63.71
2018-09-15T20:33:26.647Z,63.67
2018-09-15T20:35:52.961Z,63.89
2018-09-15T20:38:19.283Z,63.88
2018-09-15T20:40:45.612Z,63.83
2018-09-15T20:43:11.920Z,63.98
2018-09-15T20:45:38.283Z,64.02
2018-09-15T20:48:04.617Z,63.95
2018-09-15T20:50:30.941Z,63.96
2018-09-15T20:52:57.251Z,64.04
2018-09-15T20:55:23.605Z,64.08
2018-09-15T20:57:49.915Z,64.07
2018-09-15T21:00:16.260Z,63.91
2018-09-15T21:02:42.590Z,63.95
2018-09-15T21:05:08.909Z,63.96
2018-09-15T21:07:35.229Z,64.02
2018-09-15T21:10:01.538Z,64.02
2018-09-15T21:12:27.881Z,64.10
2018-09-15T21:14:54.212Z,64.11
2018-09-15T21:17:20.522Z,64.07
2018-09-15T21:19:46.843Z,64.05
2018-09-15T21:22:13.166Z,64.12
2018-09-15T21:24:39.507Z,64.17
2018-09-15T21:27:05.830Z,64.19
2018-09-15T21:29:32.132Z,64.32
2018-09-15T21:31:58.455Z,64.48
2018-09-15T21:34:24.763Z,64.40
2018-09-15T21:36:51.077Z,64.41
2018-09-15T21:39:17.445Z,64.33
2018-09-15T21:41:43.769Z,64.36
2018-09-15T21:44:10.080Z,64.49
2018-09-15T21:46:36.396Z,64.34
2018-09-15T21:49:02.733Z,64.30
2018-09-15T21:51:29.069Z,64.45
2018-09-15T21:53:55.390Z,64.47
2018-09-15T21:56:21.705Z,64.73
2018-09-15T21:58:48.018Z,64.95
2018-09-15T22:01:14.362Z,65.16
2018-09-15T22:03:40.678Z,65.39
2018-09-15T22:06:06.980Z,65.76
2018-09-15T22:08:33.298Z,65.84
2018-09-15T22:10:59.608Z,65.92
2018-09-15T22:13:26.068Z,66.00
2018-09-15T22:15:52.545Z,65.96
2018-09-15T22:18:18.816Z,65.91
2018-09-15T22:20:45.269Z,66.05
2018-09-15T22:23:11.700Z,66.14
2018-09-15T22:25:38.136Z,66.42
2018-09-15T22:28:04.449Z,66.54
2018-09-15T22:30:30.763Z,66.62
2018-09-15T22:32:57.110Z,66.61
2018-09-15T22:35:23.598Z,66.48
2018-09-15T22:37:49.994Z,66.69
2018-09-15T22:40:16.426Z,66.73
2018-09-15T22:42:42.859Z,66.76
2018-09-15T22:45:09.255Z,66.84
2018-09-15T22:47:35.726Z,66.92
2018-09-15T22:50:02.038Z,67.26
2018-09-15T22:52:28.492Z,67.51
2018-09-15T22:54:54.805Z,67.72
2018-09-15T22:57:21.254Z,67.87
2018-09-15T22:59:47.573Z,68.11
2018-09-15T23:02:13.884Z,68.37
2018-09-15T23:04:40.392Z,68.77
2018-09-15T23:07:06.674Z,68.55
2018-09-15T23:09:33.020Z,68.92
2018-09-15T23:11:59.327Z,69.08
2018-09-15T23:14:25.738Z,69.14
2018-09-15T23:16:52.214Z,68.92
2018-09-15T23:19:18.643Z,69.06
2018-09-15T23:21:44.957Z,69.34
2018-09-15T23:24:11.276Z,69.38
2018-09-15T23:26:37.590Z,69.28
2018-09-15T23:29:03.904Z,69.60
2018-09-15T23:31:30.214Z,69.85
2018-09-15T23:33:56.530Z,70.04
2018-09-15T23:36:22.842Z,70.24
2018-09-15T23:38:49.173Z,70.26
2018-09-15T23:41:15.474Z,70.50
2018-09-15T23:43:41.798Z,70.62
2018-09-15T23:46:08.115Z,70.59
2018-09-15T23:48:34.433Z,70.61
2018-09-15T23:51:00.751Z,70.73
2018-09-15T23:53:27.061Z,70.90
2018-09-15T23:55:53.374Z,71.10
2018-09-15T23:58:19.696Z,71.18
